Time;durP1;ratioP1;P1;durP2;ratioP2;P2;SDS_P1;SDS_P2;PMS_P1;PMS_P2;Temp;Humidity;BMP_temperature;BMP_pressure;BME280_temperature;BME280_humidity;BME280_pressure;Samples;Min_cycle;Max_cycle;Signal;HPM_P1;HPM_P2
2023/04/06 00:01:37;;;;;;;8.43;4.65;;;4.70;94.30;;;;;;4787865;29;20519;-78
2023/04/06 00:04:03;;;;;;;7.55;4.68;;;4.70;94.40;;;;;;4787962;30;20047;-78
2023/04/06 00:06:29;;;;;;;8.67;4.77;;;4.60;94.80;;;;;;4771799;30;20047;-78
2023/04/06 00:08:55;;;;;;;7.97;4.93;;;4.70;95.00;;;;;;4788358;29;20142;-79
2023/04/06 00:11:21;;;;;;;8.38;4.28;;;4.60;95.00;;;;;;4787886;30;20051;-78
2023/04/06 00:13:47;;;;;;;13.23;5.47;;;4.60;94.80;;;;;;4757254;30;20059;-78
2023/04/06 00:16:13;;;;;;;10.40;4.90;;;4.60;95.10;;;;;;4788404;30;20391;-78
2023/04/06 00:18:39;;;;;;;7.93;4.23;;;4.50;95.10;;;;;;4788141;29;20051;-78
2023/04/06 00:21:05;;;;;;;10.45;4.72;;;4.50;95.30;;;;;;4774900;30;20116;-79
2023/04/06 00:23:30;;;;;;;10.13;4.73;;;4.50;95.50;;;;;;4775070;30;20055;-79
2023/04/06 00:25:56;;;;;;;10.10;4.90;;;4.50;96.10;;;;;;4775011;30;20489;-80
2023/04/06 00:28:25;;;;;;;8.73;4.90;;;4.50;95.80;;;;;;4791488;29;20051;-79
2023/04/06 00:30:52;;;;;;;8.30;5.20;;;4.50;95.70;;;;;;4775241;30;20091;-79
2023/04/06 00:33:24;;;;;;;8.27;4.53;;;4.40;95.90;;;;;;4790897;29;20130;-79
2023/04/06 00:35:50;;;;;;;6.95;4.55;;;4.40;95.80;;;;;;4790818;30;20051;-78
2023/04/06 00:38:16;;;;;;;10.20;5.07;;;4.40;96.00;;;;;;4774875;30;20059;-79
2023/04/06 00:40:46;;;;;;;10.33;4.90;;;4.30;96.20;;;;;;4790647;29;20138;-79
2023/04/06 00:43:12;;;;;;;8.02;4.07;;;4.30;96.40;;;;;;4790943;29;20293;-79
2023/04/06 00:45:39;;;;;;;12.23;5.28;;;4.30;96.40;;;;;;4790723;29;20394;-78
2023/04/06 00:48:06;;;;;;;8.65;4.65;;;4.30;96.80;;;;;;4791663;30;20059;-78
2023/04/06 00:50:32;;;;;;;9.80;4.80;;;4.20;96.80;;;;;;4790271;30;20561;-78
2023/04/06 00:52:59;;;;;;;9.52;5.57;;;4.20;97.20;;;;;;4790509;30;20557;-81
2023/04/06 00:55:29;;;;;;;10.85;5.20;;;4.20;97.50;;;;;;4790461;29;20055;-77
2023/04/06 00:57:58;;;;;;;8.27;4.90;;;4.20;97.20;;;;;;4790667;30;20055;-78
2023/04/06 01:00:24;;;;;;;9.60;4.93;;;4.20;97.30;;;;;;4775102;30;20047;-78
2023/04/06 01:02:50;;;;;;;6.72;4.30;;;4.10;97.60;;;;;;4790368;30;20172;-78
2023/04/06 01:05:16;;;;;;;9.57;5.43;;;4.10;97.60;;;;;;4774677;30;20134;-77
2023/04/06 01:07:42;;;;;;;9.70;5.00;;;4.10;97.60;;;;;;4790756;30;20126;-78
2023/04/06 01:10:08;;;;;;;8.13;4.77;;;4.00;97.90;;;;;;4790205;30;20043;-78
2023/04/06 01:12:33;;;;;;;7.85;4.00;;;4.00;98.40;;;;;;4774226;30;20055;-78
2023/04/06 01:14:59;;;;;;;8.87;4.63;;;4.00;98.60;;;;;;4790150;29;20058;-85
2023/04/06 01:17:25;;;;;;;7.93;4.68;;;4.00;98.70;;;;;;4790643;29;20094;-78
2023/04/06 01:19:53;;;;;;;11.17;5.90;;;4.00;98.70;;;;;;4790072;29;20105;-78
2023/04/06 01:22:20;;;;;;;8.77;4.65;;;4.00;98.60;;;;;;4774156;30;20051;-78
2023/04/06 01:24:46;;;;;;;8.50;4.43;;;3.90;98.70;;;;;;4789986;30;20059;-78
2023/04/06 01:27:12;;;;;;;8.70;4.90;;;3.90;99.20;;;;;;4774274;30;20462;-78
2023/04/06 01:29:41;;;;;;;7.43;4.53;;;3.90;99.10;;;;;;4774757;29;20397;-79
2023/04/06 01:32:07;;;;;;;10.50;4.72;;;3.80;99.00;;;;;;4789809;30;20130;-79
2023/04/06 01:34:33;;;;;;;7.20;4.10;;;3.70;99.40;;;;;;4774013;30;20066;-78
2023/04/06 01:36:59;;;;;;;8.57;4.70;;;3.70;99.40;;;;;;4773830;30;20401;-78
2023/04/06 01:39:25;;;;;;;7.93;4.53;;;3.70;99.80;;;;;;4773573;30;20141;-78
2023/04/06 01:41:51;;;;;;;6.50;3.80;;;3.70;99.90;;;;;;4773818;30;20059;-78
2023/04/06 01:44:18;;;;;;;7.90;4.10;;;3.70;99.90;;;;;;4789881;30;20091;-78
2023/04/06 01:46:45;;;;;;;7.70;5.07;;;3.60;99.90;;;;;;4759119;30;20058;-78
2023/04/06 01:49:11;;;;;;;7.00;4.22;;;3.60;99.90;;;;;;4790257;30;20055;-78
2023/04/06 01:51:37;;;;;;;7.53;4.50;;;3.60;99.90;;;;;;4789251;29;20134;-78
2023/04/06 01:54:03;;;;;;;9.10;5.10;;;3.60;99.90;;;;;;4789511;30;20094;-85
2023/04/06 01:56:29;;;;;;;8.63;4.10;;;3.60;99.90;;;;;;4789674;29;20058;-78
2023/04/06 01:58:55;;;;;;;10.03;4.63;;;3.50;99.90;;;;;;4789335;30;20051;-78
2023/04/06 02:01:21;;;;;;;7.85;4.75;;;3.60;99.90;;;;;;4773311;30;20055;-78
2023/04/06 02:03:47;;;;;;;7.82;4.75;;;3.50;99.90;;;;;;4789320;30;20054;-78
2023/04/06 02:06:12;;;;;;;8.50;4.63;;;3.50;99.90;;;;;;4773374;30;20051;-78
2023/04/06 02:08:38;;;;;;;9.40;4.77;;;3.50;99.90;;;;;;4789244;29;20051;-78
2023/04/06 02:11:04;;;;;;;8.83;4.07;;;3.50;99.90;;;;;;4773191;30;20087;-77
2023/04/06 02:13:30;;;;;;;7.85;3.97;;;3.40;99.90;;;;;;4788890;30;20069;-78
2023/04/06 02:15:56;;;;;;;8.73;4.53;;;3.40;99.90;;;;;;4789175;30;20048;-78
2023/04/06 02:18:22;;;;;;;7.65;4.30;;;3.40;99.90;;;;;;4788753;30;20459;-78
2023/04/06 02:20:48;;;;;;;7.40;4.13;;;3.30;99.90;;;;;;4789003;30;20047;-78
2023/04/06 02:23:14;;;;;;;8.57;4.90;;;3.40;99.90;;;;;;4773844;30;20083;-78
2023/04/06 02:25:40;;;;;;;7.17;4.63;;;3.40;99.90;;;;;;4788918;29;20051;-78
2023/04/06 02:28:07;;;;;;;7.38;4.30;;;3.40;99.90;;;;;;4788774;30;20055;-78
2023/04/06 02:30:32;;;;;;;8.90;5.10;;;3.40;99.90;;;;;;4788899;30;20058;-79
2023/04/06 02:33:00;;;;;;;9.00;4.83;;;3.30;99.90;;;;;;4788853;29;20051;-78
2023/04/06 02:35:27;;;;;;;7.43;4.65;;;3.30;99.90;;;;;;4789272;30;20152;-78
2023/04/06 02:37:53;;;;;;;8.70;4.60;;;3.30;99.90;;;;;;4789089;30;20094;-78
2023/04/06 02:40:19;;;;;;;7.70;4.50;;;3.20;99.90;;;;;;4788639;30;20087;-79
2023/04/06 02:42:45;;;;;;;8.50;4.90;;;3.20;99.90;;;;;;4788817;29;20066;-78
2023/04/06 02:45:10;;;;;;;9.40;5.23;;;3.20;99.90;;;;;;4788660;29;20054;-79
2023/04/06 02:47:36;;;;;;;7.03;4.47;;;3.20;99.90;;;;;;4788346;30;20059;-77
2023/04/06 02:50:02;;;;;;;8.27;4.47;;;3.10;99.90;;;;;;4788624;30;20043;-78
2023/04/06 02:52:29;;;;;;;6.85;4.30;;;3.10;99.90;;;;;;4788264;29;20055;-78
2023/04/06 02:54:55;;;;;;;9.13;4.67;;;3.10;99.90;;;;;;4788621;30;20066;-78
2023/04/06 02:57:20;;;;;;;8.07;4.63;;;3.10;99.90;;;;;;4788536;30;20090;-78
2023/04/06 02:59:46;;;;;;;7.20;3.80;;;3.00;99.90;;;;;;4788527;30;20115;-78
2023/04/06 03:02:12;;;;;;;7.67;4.70;;;3.00;99.90;;;;;;4772606;30;20051;-79
2023/04/06 03:04:38;;;;;;;7.77;5.10;;;3.00;99.90;;;;;;4773490;30;20063;-78
2023/04/06 03:07:03;;;;;;;8.77;5.10;;;3.00;99.90;;;;;;4788413;30;20489;-78
2023/04/06 03:09:29;;;;;;;8.17;4.77;;;2.90;99.90;;;;;;4788456;29;20047;-78
2023/04/06 03:11:55;;;;;;;9.17;4.80;;;3.00;99.90;;;;;;4788384;30;20062;-78
2023/04/06 03:14:21;;;;;;;8.53;4.67;;;3.00;99.90;;;;;;4788366;30;20144;-78
2023/04/06 03:16:48;;;;;;;10.00;5.00;;;3.00;99.90;;;;;;4788577;30;20094;-78
2023/04/06 03:19:14;;;;;;;9.85;4.85;;;2.90;99.90;;;;;;4772265;30;20101;-79
2023/04/06 03:21:40;;;;;;;10.47;4.77;;;2.90;99.90;;;;;;4788328;30;20044;-78
2023/04/06 03:24:06;;;;;;;8.23;5.53;;;2.90;99.90;;;;;;4772490;30;20055;-78
2023/04/06 03:26:31;;;;;;;8.07;4.55;;;2.90;99.90;;;;;;4788526;29;20185;-78
2023/04/06 03:28:57;;;;;;;8.27;5.07;;;2.90;99.90;;;;;;4772446;30;20536;-78
2023/04/06 03:31:23;;;;;;;14.90;5.40;;;2.90;99.90;;;;;;4772599;30;20055;-79
2023/04/06 03:33:48;;;;;;;10.27;5.03;;;2.80;99.90;;;;;;4772634;30;20079;-78
2023/04/06 03:36:14;;;;;;;10.00;4.93;;;2.90;99.90;;;;;;4772658;30;20473;-83
2023/04/06 03:38:40;;;;;;;9.57;4.60;;;2.80;99.90;;;;;;4787866;29;20059;-78
2023/04/06 03:41:06;;;;;;;8.60;4.87;;;2.80;99.90;;;;;;4788053;30;20051;-78
2023/04/06 03:43:31;;;;;;;8.40;5.40;;;2.80;99.90;;;;;;4787835;30;20090;-78
2023/04/06 03:45:57;;;;;;;9.77;5.07;;;2.80;99.90;;;;;;4772273;30;20124;-78
2023/04/06 03:48:23;;;;;;;9.10;5.63;;;2.80;99.90;;;;;;4771949;30;20062;-79
2023/04/06 03:50:49;;;;;;;8.53;5.40;;;2.80;99.90;;;;;;4788052;30;20061;-79
2023/04/06 03:53:15;;;;;;;9.83;5.30;;;2.80;99.90;;;;;;4788148;29;20083;-79
2023/04/06 03:55:41;;;;;;;8.33;5.57;;;2.80;99.90;;;;;;4790945;30;20103;-78
2023/04/06 03:58:06;;;;;;;9.53;4.93;;;2.80;99.90;;;;;;4776164;30;20301;-78
2023/04/06 04:00:32;;;;;;;10.20;5.77;;;2.80;99.90;;;;;;4775331;30;20044;-79
2023/04/06 04:02:58;;;;;;;8.63;5.25;;;2.80;99.90;;;;;;4791977;30;20058;-79
2023/04/06 04:05:25;;;;;;;9.10;5.10;;;2.80;99.90;;;;;;4791645;30;20127;-79
2023/04/06 04:07:52;;;;;;;8.95;5.13;;;2.80;99.90;;;;;;4791796;29;20289;-78
2023/04/06 04:10:17;;;;;;;10.55;5.75;;;2.80;99.90;;;;;;4791796;30;20086;-86
2023/04/06 04:12:43;;;;;;;8.07;5.87;;;2.80;99.90;;;;;;4791267;30;20078;-79
2023/04/06 04:15:09;;;;;;;10.73;6.17;;;2.80;99.90;;;;;;4791153;29;20062;-79
2023/04/06 04:17:35;;;;;;;9.15;5.57;;;2.80;99.90;;;;;;4775981;30;20137;-79
2023/04/06 04:20:01;;;;;;;8.13;5.53;;;2.70;99.90;;;;;;4791003;29;20185;-79
2023/04/06 04:22:27;;;;;;;11.43;5.30;;;2.70;99.90;;;;;;4791078;30;20051;-79
2023/04/06 04:24:53;;;;;;;9.23;5.70;;;2.70;99.90;;;;;;4791070;30;20062;-79
2023/04/06 04:27:20;;;;;;;8.13;5.27;;;2.70;99.90;;;;;;4790938;30;20048;-86
2023/04/06 04:29:46;;;;;;;7.97;5.13;;;2.70;99.90;;;;;;4791436;30;20047;-79
2023/04/06 04:32:12;;;;;;;8.60;5.53;;;2.70;99.90;;;;;;4790630;30;20146;-79
2023/04/06 04:34:40;;;;;;;9.03;5.47;;;2.70;99.90;;;;;;4790826;29;20091;-79
2023/04/06 04:37:06;;;;;;;9.82;5.80;;;2.70;99.90;;;;;;4790828;30;20551;-78
2023/04/06 04:39:32;;;;;;;11.68;6.55;;;2.60;99.90;;;;;;4774810;30;20105;-79
2023/04/06 04:41:58;;;;;;;8.20;5.65;;;2.60;99.90;;;;;;4790744;30;20055;-78
2023/04/06 04:44:24;;;;;;;9.33;5.93;;;2.60;99.90;;;;;;4775096;30;20050;-79
2023/04/06 04:46:50;;;;;;;10.00;6.07;;;2.60;99.90;;;;;;4774847;30;20051;-78
2023/04/06 04:49:15;;;;;;;9.43;6.00;;;2.60;99.90;;;;;;4791200;30;20047;-78
2023/04/06 04:51:41;;;;;;;11.03;5.73;;;2.60;99.90;;;;;;4774581;30;20062;-78
2023/04/06 04:54:07;;;;;;;9.33;6.13;;;2.60;99.90;;;;;;4791577;29;20071;-78
2023/04/06 04:56:33;;;;;;;9.07;5.60;;;2.60;99.90;;;;;;4791010;30;20515;-78
2023/04/06 04:58:58;;;;;;;8.97;5.87;;;2.60;99.90;;;;;;4790406;30;20400;-78
2023/04/06 05:01:24;;;;;;;10.03;6.60;;;2.60;99.90;;;;;;4774547;30;20047;-79
2023/04/06 05:03:50;;;;;;;10.52;6.22;;;2.60;99.90;;;;;;4790427;29;20594;-78
2023/04/06 05:06:16;;;;;;;12.03;6.40;;;2.60;99.90;;;;;;4790776;29;20130;-78
2023/04/06 05:08:42;;;;;;;10.20;7.07;;;2.60;99.90;;;;;;4790220;30;20051;-78
2023/04/06 05:11:09;;;;;;;13.27;7.00;;;2.70;99.90;;;;;;4774415;30;20059;-78
2023/04/06 05:13:35;;;;;;;12.98;6.53;;;2.70;99.90;;;;;;4791012;30;20058;-80
2023/04/06 05:16:01;;;;;;;10.43;6.82;;;2.70;99.90;;;;;;4774166;30;20112;-79
2023/04/06 05:18:27;;;;;;;11.93;7.00;;;2.70;99.90;;;;;;4790612;30;20157;-80
2023/04/06 05:20:52;;;;;;;10.03;7.17;;;2.70;99.90;;;;;;4790795;30;20495;-79
2023/04/06 05:23:18;;;;;;;10.57;6.73;;;2.70;99.90;;;;;;4774757;30;20085;-79
2023/04/06 05:25:44;;;;;;;13.43;7.20;;;2.70;99.90;;;;;;4774385;30;20142;-79
2023/04/06 05:28:10;;;;;;;11.97;7.10;;;2.70;99.90;;;;;;4790075;30;20078;-79
2023/04/06 05:30:35;;;;;;;12.37;7.90;;;2.70;99.90;;;;;;4790360;29;20171;-80
2023/04/06 05:33:02;;;;;;;9.57;6.57;;;2.70;99.90;;;;;;4789891;30;20051;-80
2023/04/06 05:35:27;;;;;;;10.55;6.15;;;2.70;99.90;;;;;;4789704;30;20089;-80
2023/04/06 05:37:53;;;;;;;11.07;6.80;;;2.70;99.90;;;;;;4790273;30;20055;-80
2023/04/06 05:40:19;;;;;;;12.47;6.80;;;2.80;99.90;;;;;;4789659;29;20047;-80
2023/04/06 05:42:45;;;;;;;11.03;6.60;;;2.80;99.90;;;;;;4790345;30;20059;-80
2023/04/06 05:45:16;;;;;;;11.50;6.83;;;2.80;99.90;;;;;;4789654;30;20093;-79
2023/04/06 05:47:43;;;;;;;10.73;6.60;;;2.80;99.90;;;;;;4790214;30;20059;-79
2023/04/06 05:50:14;;;;;;;10.80;6.32;;;2.90;99.90;;;;;;4790337;30;20054;-80
2023/04/06 05:52:42;;;;;;;11.63;6.70;;;2.90;99.90;;;;;;4773337;30;20108;-79
2023/04/06 05:55:09;;;;;;;12.10;6.07;;;2.90;99.90;;;;;;4789300;30;20573;-79
2023/04/06 05:57:35;;;;;;;10.82;6.35;;;3.00;99.90;;;;;;4789881;30;20066;-80
2023/04/06 06:00:03;;;;;;;13.17;7.07;;;3.00;99.90;;;;;;4789347;30;20393;-80
2023/04/06 06:02:31;;;;;;;12.48;6.97;;;3.00;99.90;;;;;;4789412;30;20082;-86
2023/04/06 06:04:56;;;;;;;13.23;6.53;;;3.10;99.90;;;;;;4789422;30;20051;-80
2023/04/06 06:07:23;;;;;;;11.50;6.70;;;3.20;99.90;;;;;;4789221;30;20058;-80
2023/04/06 06:09:49;;;;;;;10.75;6.50;;;3.30;99.90;;;;;;4789146;30;20488;-80
2023/04/06 06:12:15;;;;;;;10.55;6.82;;;3.40;99.90;;;;;;4789150;30;20069;-79
2023/04/06 06:14:41;;;;;;;12.40;6.97;;;3.60;99.90;;;;;;4789642;30;20047;-80
2023/04/06 06:17:07;;;;;;;11.07;6.60;;;4.30;99.90;;;;;;4743505;30;20109;-80
2023/04/06 06:19:32;;;;;;;9.60;6.47;;;5.30;99.90;;;;;;4789555;30;20150;-80
2023/04/06 06:21:59;;;;;;;13.00;6.30;;;6.00;99.90;;;;;;4773224;30;20059;-79
2023/04/06 06:24:25;;;;;;;11.15;6.28;;;6.10;98.70;;;;;;4789553;30;20059;-79
2023/04/06 06:26:51;;;;;;;10.93;6.60;;;5.80;97.60;;;;;;4788999;30;20051;-79
2023/04/06 06:29:16;;;;;;;10.33;5.97;;;5.40;97.50;;;;;;4789223;30;20652;-79
2023/04/06 06:31:42;;;;;;;11.57;6.70;;;5.20;98.20;;;;;;4773489;30;20087;-79
2023/04/06 06:34:08;;;;;;;12.20;6.73;;;5.00;98.30;;;;;;4772839;30;20055;-80
2023/04/06 06:36:35;;;;;;;10.47;5.90;;;5.40;99.30;;;;;;4788871;30;20047;-81
2023/04/06 06:39:03;;;;;;;9.68;6.20;;;6.30;99.30;;;;;;4789212;30;20074;-77
2023/04/06 06:41:28;;;;;;;9.10;6.15;;;7.40;97.50;;;;;;4789000;30;20150;-77
2023/04/06 06:43:54;;;;;;;9.97;6.43;;;8.00;95.30;;;;;;4788923;30;20533;-77
2023/04/06 06:46:21;;;;;;;12.17;6.70;;;8.20;94.00;;;;;;4788666;30;20138;-75
2023/04/06 06:48:46;;;;;;;13.75;6.78;;;8.10;91.00;;;;;;4788655;30;20138;-77
2023/04/06 06:51:12;;;;;;;9.20;6.70;;;7.90;91.80;;;;;;4788356;29;20130;-77
2023/04/06 06:53:38;;;;;;;10.50;7.20;;;7.70;91.00;;;;;;4772255;30;20059;-77
2023/04/06 06:56:04;;;;;;;12.67;6.80;;;8.00;89.60;;;;;;4757927;30;20055;-77
2023/04/06 06:58:30;;;;;;;9.45;6.40;;;8.70;89.40;;;;;;4788806;30;20055;-77
2023/04/06 07:00:59;;;;;;;12.50;6.63;;;9.10;86.60;;;;;;4772720;30;20181;-76
2023/04/06 07:03:26;;;;;;;10.68;6.72;;;9.30;81.60;;;;;;4772575;30;20066;-75
2023/04/06 07:05:54;;;;;;;13.38;8.02;;;9.70;80.30;;;;;;4788369;29;20059;-74
2023/04/06 07:08:21;;;;;;;16.25;7.15;;;10.10;79.30;;;;;;4788907;30;20047;-76
2023/04/06 07:10:48;;;;;;;13.75;6.50;;;10.80;77.60;;;;;;4788364;29;20047;-77
2023/04/06 07:13:21;;;;;;;10.25;7.05;;;11.40;73.60;;;;;;4788684;30;20540;-76
2023/04/06 07:15:47;;;;;;;9.60;6.90;;;12.10;71.30;;;;;;4788390;30;20052;-74
2023/04/06 07:18:13;;;;;;;12.73;7.20;;;12.70;65.80;;;;;;4742947;30;20308;-80
2023/04/06 07:20:38;;;;;;;12.10;7.00;;;13.30;63.40;;;;;;4757500;30;20083;-80
2023/04/06 07:23:04;;;;;;;10.83;7.23;;;13.70;61.70;;;;;;4788291;30;20047;-78
2023/04/06 07:25:30;;;;;;;10.80;6.83;;;14.30;60.80;;;;;;4788087;30;20059;-78
2023/04/06 07:27:56;;;;;;;12.03;7.07;;;14.30;58.10;;;;;;4772860;30;20052;-79
2023/04/06 07:30:22;;;;;;;11.60;6.83;;;14.30;56.50;;;;;;4791959;30;20476;-78
2023/04/06 07:32:48;;;;;;;9.90;6.97;;;14.40;55.50;;;;;;4776824;30;20366;-79
2023/04/06 07:35:15;;;;;;;10.07;6.63;;;14.10;52.00;;;;;;4792619;30;20702;-79
2023/04/06 07:37:42;;;;;;;9.37;6.83;;;14.20;55.10;;;;;;4791848;29;20843;-79
2023/04/06 07:40:08;;;;;;;9.10;6.20;;;14.60;53.70;;;;;;4791809;30;20362;-79
2023/04/06 07:42:34;;;;;;;9.20;6.27;;;14.50;53.50;;;;;;4791841;30;20292;-78
2023/04/06 07:44:59;;;;;;;11.53;7.23;;;14.10;52.40;;;;;;4775846;30;20634;-78
2023/04/06 07:47:25;;;;;;;9.53;7.13;;;13.60;51.00;;;;;;4791688;29;20084;-78
2023/04/06 07:49:51;;;;;;;11.30;7.33;;;13.10;51.90;;;;;;4791654;30;20086;-78
2023/04/06 07:52:17;;;;;;;11.47;7.03;;;12.60;51.90;;;;;;4760489;30;20380;-79
2023/04/06 07:54:44;;;;;;;11.67;7.63;;;12.00;52.70;;;;;;4791568;30;20070;-79
2023/04/06 07:57:09;;;;;;;11.63;7.47;;;11.60;53.30;;;;;;4791513;30;20413;-78
2023/04/06 07:59:35;;;;;;;9.63;7.00;;;11.40;54.10;;;;;;4775401;30;20313;-78
2023/04/06 08:02:01;;;;;;;10.00;7.10;;;11.20;54.30;;;;;;4791423;30;20434;-78
2023/04/06 08:04:26;;;;;;;11.30;7.00;;;10.90;54.50;;;;;;4791398;30;20051;-78
2023/04/06 08:06:52;;;;;;;11.50;6.93;;;10.60;54.50;;;;;;4791314;29;20059;-77
2023/04/06 08:09:18;;;;;;;10.93;7.10;;;10.50;55.40;;;;;;4775669;30;20055;-78
2023/04/06 08:11:45;;;;;;;12.23;7.50;;;10.40;55.40;;;;;;4775509;30;20055;-80
2023/04/06 08:14:11;;;;;;;11.10;6.70;;;10.30;55.90;;;;;;4761307;30;20392;-78
2023/04/06 08:16:37;;;;;;;12.57;7.60;;;10.30;57.10;;;;;;4791420;30;20293;-79
2023/04/06 08:19:04;;;;;;;11.93;7.73;;;10.30;56.80;;;;;;4775477;30;20110;-75
2023/04/06 08:21:30;;;;;;;10.57;7.00;;;10.20;57.10;;;;;;4775469;30;20393;-79
2023/04/06 08:23:56;;;;;;;9.57;6.73;;;10.20;57.40;;;;;;4791079;30;20300;-80
2023/04/06 08:26:21;;;;;;;10.20;6.93;;;10.20;57.70;;;;;;4791532;30;20682;-80
2023/04/06 08:28:47;;;;;;;14.17;8.77;;;10.20;57.80;;;;;;4775153;30;20053;-80
2023/04/06 08:31:13;;;;;;;10.93;7.83;;;10.20;57.90;;;;;;4790900;30;20053;-79
2023/04/06 08:33:39;;;;;;;12.73;8.40;;;10.20;57.70;;;;;;4790905;30;20065;-75
2023/04/06 08:36:13;;;;;;;12.83;7.30;;;10.20;58.00;;;;;;4774690;30;20051;-77
2023/04/06 08:38:39;;;;;;;12.67;8.20;;;10.40;58.30;;;;;;4791397;30;20118;-79
2023/04/06 08:41:10;;;;;;;12.00;7.97;;;10.50;58.30;;;;;;4790458;29;20312;-79
2023/04/06 08:43:43;;;;;;;13.63;8.50;;;10.60;57.90;;;;;;4791292;29;20293;-80
2023/04/06 08:46:11;;;;;;;10.63;7.70;;;10.70;57.70;;;;;;4775638;30;20353;-78
2023/04/06 08:48:39;;;;;;;13.20;9.27;;;10.80;57.60;;;;;;4791108;30;20321;-78
2023/04/06 08:51:05;;;;;;;12.40;8.10;;;10.70;56.60;;;;;;4791140;30;20285;-78
2023/04/06 08:53:31;;;;;;;14.60;9.03;;;10.70;57.30;;;;;;4775212;30;20833;-76
2023/04/06 08:55:58;;;;;;;15.33;9.57;;;10.60;57.50;;;;;;4790539;30;20392;-78
2023/04/06 08:58:28;;;;;;;13.07;8.97;;;10.60;57.80;;;;;;4774749;30;20127;-78
2023/04/06 09:00:54;;;;;;;15.47;9.07;;;10.70;57.00;;;;;;4790366;30;20308;-78
2023/04/06 09:03:21;;;;;;;15.93;9.30;;;10.70;57.40;;;;;;4790466;30;20293;-78
2023/04/06 09:05:47;;;;;;;12.57;8.97;;;10.70;57.60;;;;;;4790951;29;20288;-77
2023/04/06 09:08:14;;;;;;;13.63;9.33;;;10.80;57.20;;;;;;4790313;30;20355;-78
2023/04/06 09:10:42;;;;;;;14.53;9.67;;;10.70;56.80;;;;;;4790275;30;20289;-77
2023/04/06 09:13:09;;;;;;;17.03;11.27;;;10.80;57.40;;;;;;4790679;30;20315;-74
2023/04/06 09:15:35;;;;;;;15.10;9.90;;;10.90;56.90;;;;;;4790016;30;20778;-77
2023/04/06 09:18:01;;;;;;;16.37;10.07;;;11.00;57.30;;;;;;4774043;30;20405;-77
2023/04/06 09:20:28;;;;;;;16.27;10.43;;;11.00;58.00;;;;;;4790576;30;20312;-76
2023/04/06 09:22:55;;;;;;;16.47;10.07;;;11.10;57.90;;;;;;4790019;30;20317;-77
2023/04/06 09:25:27;;;;;;;17.57;11.03;;;11.10;57.60;;;;;;4790029;30;20306;-77
2023/04/06 09:28:01;;;;;;;15.57;10.97;;;11.20;58.20;;;;;;4789988;30;20281;-78
2023/04/06 09:30:27;;;;;;;15.83;10.77;;;11.40;58.20;;;;;;4789919;29;20289;-79
2023/04/06 09:32:55;;;;;;;13.93;11.23;;;11.50;58.10;;;;;;4774792;30;20392;-81
2023/04/06 09:35:22;;;;;;;22.63;11.93;;;11.60;57.20;;;;;;4789915;30;20047;-75
2023/04/06 09:37:50;;;;;;;15.57;11.10;;;11.50;56.50;;;;;;4789890;30;20631;-78
2023/04/06 09:40:19;;;;;;;15.57;11.23;;;11.50;57.60;;;;;;4789712;30;20309;-78
2023/04/06 09:42:49;;;;;;;17.70;11.50;;;11.50;57.90;;;;;;4789729;30;20773;-78
2023/04/06 09:45:16;;;;;;;14.57;11.17;;;11.50;57.40;;;;;;4789995;30;20292;-78
2023/04/06 09:47:44;;;;;;;16.03;11.83;;;11.50;58.00;;;;;;4789952;30;20851;-80
2023/04/06 09:50:11;;;;;;;17.50;12.03;;;11.50;57.50;;;;;;4789617;30;20634;-78
2023/04/06 09:52:51;;;;;;;17.20;11.77;;;11.60;58.40;;;;;;4788264;29;20383;-79
2023/04/06 09:55:33;;;;;;;14.87;11.00;;;11.60;57.80;;;;;;4759119;30;20411;-73
2023/04/06 09:58:07;;;;;;;16.53;12.07;;;11.70;58.10;;;;;;4789476;30;20354;-80
2023/04/06 10:00:40;;;;;;;19.43;12.67;;;11.80;58.10;;;;;;4789091;30;20754;-81
2023/04/06 10:03:49;;;;;;;16.97;11.50;;;11.80;58.00;;;;;;4773853;30;20301;-81
2023/04/06 10:06:18;;;;;;;16.70;12.20;;;11.90;57.40;;;;;;4780496;30;20391;-80
2023/04/06 10:08:47;;;;;;;20.33;12.83;;;12.00;58.00;;;;;;4789329;30;20289;-80
2023/04/06 10:11:14;;;;;;;19.20;12.70;;;12.00;55.80;;;;;;4773768;30;20854;-79
2023/04/06 10:13:39;;;;;;;20.87;12.63;;;12.00;57.50;;;;;;4789261;30;20292;-73
2023/04/06 10:16:07;;;;;;;19.13;12.50;;;12.00;57.10;;;;;;4789710;30;20288;-79
2023/04/06 10:18:33;;;;;;;17.43;12.03;;;12.10;57.70;;;;;;4773577;30;20397;-82
2023/04/06 10:21:08;;;;;;;17.50;12.43;;;12.20;57.60;;;;;;4789072;30;20379;-83
2023/04/06 10:23:45;;;;;;;;;;;12.20;57.40;;;;;;4789733;30;20297;-83
2023/04/06 10:26:20;;;;;;;;;;;12.20;57.00;;;;;;4773658;30;20435;-82
2023/04/06 10:28:47;;;;;;;18.65;12.95;;;12.30;56.80;;;;;;4789002;30;20028;-80
2023/04/06 10:31:13;;;;;;;21.97;14.67;;;12.40;57.70;;;;;;4788934;30;20062;-78
2023/04/06 10:33:40;;;;;;;18.83;13.13;;;12.50;57.80;;;;;;4772864;30;20300;-77
2023/04/06 10:36:21;;;;;;;21.00;13.57;;;12.50;57.50;;;;;;4788828;29;20293;-78
2023/04/06 10:38:47;;;;;;;20.80;14.20;;;12.60;56.70;;;;;;4773234;30;20372;-73
2023/04/06 10:41:13;;;;;;;23.40;13.53;;;12.50;56.70;;;;;;4788714;30;20313;-79
2023/04/06 10:43:42;;;;;;;21.53;14.00;;;12.50;56.90;;;;;;4788767;30;20059;-80
2023/04/06 10:46:09;;;;;;;22.87;13.80;;;12.60;56.20;;;;;;4773071;30;20308;-83
2023/04/06 10:48:40;;;;;;;20.37;14.40;;;12.50;56.10;;;;;;4772859;30;20308;-78
2023/04/06 10:51:17;;;;;;;22.33;14.57;;;12.60;56.30;;;;;;4788618;30;20380;-79
2023/04/06 10:53:47;;;;;;;22.50;14.40;;;12.50;55.80;;;;;;4788908;29;20300;-78
2023/04/06 10:56:17;;;;;;;21.90;14.80;;;12.50;55.80;;;;;;4789074;30;20301;-78
2023/04/06 10:58:53;;;;;;;23.07;15.23;;;12.40;54.80;;;;;;4789100;30;20285;-79
2023/04/06 11:01:20;;;;;;;23.63;14.73;;;12.40;55.40;;;;;;4789153;29;20305;-80
2023/04/06 11:03:52;;;;;;;21.47;14.57;;;12.50;56.10;;;;;;4788122;29;20295;-78
2023/04/06 11:06:22;;;;;;;26.60;16.30;;;12.50;56.30;;;;;;4788465;30;20296;-78
2023/04/06 11:08:49;;;;;;;23.10;14.57;;;12.50;56.00;;;;;;4788448;30;20328;-78
2023/04/06 11:11:21;;;;;;;23.37;15.10;;;12.60;56.20;;;;;;4772571;30;20300;-76
2023/04/06 11:14:00;;;;;;;22.23;15.07;;;12.70;56.20;;;;;;4788150;30;20843;-80
2023/04/06 11:16:32;;;;;;;23.03;15.63;;;12.80;56.30;;;;;;4788375;30;20301;-79
2023/04/06 11:19:07;;;;;;;22.57;15.33;;;12.80;56.20;;;;;;4788416;30;20384;-79
2023/04/06 11:21:39;;;;;;;20.33;15.80;;;12.90;56.20;;;;;;4788370;30;20293;-77
2023/04/06 11:24:17;;;;;;;22.67;15.20;;;12.90;56.30;;;;;;4788826;29;20051;-81
2023/04/06 11:26:54;;;;;;;24.57;16.43;;;12.90;55.70;;;;;;4788328;30;20304;-81
2023/04/06 11:29:22;;;;;;;26.67;16.00;;;12.90;56.10;;;;;;4788793;30;20396;-79
2023/04/06 11:31:51;;;;;;;24.53;17.13;;;13.00;56.30;;;;;;4788186;29;20293;-76
2023/04/06 11:34:22;;;;;;;25.17;16.97;;;13.00;56.20;;;;;;4788159;29;20288;-78
2023/04/06 11:36:53;;;;;;;24.10;16.40;;;13.10;55.60;;;;;;4772373;30;20336;-78
2023/04/06 11:39:23;;;;;;;21.47;16.50;;;13.10;55.70;;;;;;4788866;30;20284;-78
2023/04/06 11:42:00;;;;;;;25.47;16.47;;;13.20;55.40;;;;;;4788726;30;20351;-77
2023/04/06 11:44:33;;;;;;;25.13;17.93;;;13.20;55.50;;;;;;4788904;30;20642;-79
2023/04/06 11:47:00;;;;;;;23.97;16.80;;;13.20;55.00;;;;;;4757601;30;20322;-80
2023/04/06 11:49:30;;;;;;;26.47;17.77;;;13.20;55.40;;;;;;4788515;30;20624;-81
2023/04/06 11:51:57;;;;;;;23.70;17.40;;;13.20;56.10;;;;;;4788032;29;20372;-81
2023/04/06 11:54:37;;;;;;;25.07;17.27;;;13.10;56.10;;;;;;4787895;30;20444;-79
2023/04/06 11:57:04;;;;;;;23.53;16.73;;;13.10;55.80;;;;;;4788007;30;20376;-80
2023/04/06 11:59:30;;;;;;;23.97;16.00;;;13.20;56.50;;;;;;4787955;30;20301;-79
2023/04/06 12:01:57;;;;;;;22.60;15.93;;;13.30;56.80;;;;;;4772198;30;20307;-78
2023/04/06 12:04:23;;;;;;;23.73;16.43;;;13.30;56.90;;;;;;4772756;30;20301;-80
2023/04/06 12:06:49;;;;;;;22.87;16.77;;;13.40;57.00;;;;;;4788033;29;20641;-83
2023/04/06 12:09:17;;;;;;;24.20;16.47;;;13.40;57.10;;;;;;4772048;30;20583;-79
2023/04/06 12:11:43;;;;;;;20.43;15.23;;;13.50;57.20;;;;;;4788442;29;20301;-79
2023/04/06 12:14:09;;;;;;;25.00;15.50;;;13.60;57.50;;;;;;4787826;29;20293;-80
2023/04/06 12:16:35;;;;;;;20.57;15.40;;;13.60;57.40;;;;;;4790656;30;20075;-79
2023/04/06 12:19:01;;;;;;;21.77;15.70;;;13.60;56.70;;;;;;4791683;30;20751;-79
2023/04/06 12:21:33;;;;;;;26.17;16.13;;;13.60;56.70;;;;;;4791786;29;20043;-74
2023/04/06 12:23:59;;;;;;;21.83;15.47;;;13.60;57.10;;;;;;4791115;30;20297;-79
2023/04/06 12:26:26;;;;;;;22.50;15.13;;;13.70;57.60;;;;;;4791524;30;20301;-77
2023/04/06 12:28:52;;;;;;;20.33;15.43;;;13.70;57.40;;;;;;4791521;30;20316;-77
2023/04/06 12:31:20;;;;;;;21.73;14.73;;;13.70;57.30;;;;;;4791435;30;20854;-78
2023/04/06 12:33:50;;;;;;;20.53;14.50;;;13.80;57.70;;;;;;4790902;30;20099;-78
2023/04/06 12:36:20;;;;;;;22.33;16.23;;;13.60;57.70;;;;;;4775082;30;20811;-80
2023/04/06 12:38:51;;;;;;;19.67;14.47;;;13.70;57.90;;;;;;4775267;30;20835;-74
2023/04/06 12:41:17;;;;;;;18.33;14.57;;;13.60;58.00;;;;;;4790730;30;20309;-80
2023/04/06 12:43:44;;;;;;;21.43;14.20;;;13.60;58.10;;;;;;4774887;30;20336;-75